Share

Ulaanbaatar, Mongolia

Buyant-Ukhaa (ZMUB) Elev 4364 ft | 47.83 °N, 106.78 °E | Change Station

Current weather conditions updated -342 second ago

Light Snow
Light Snow Rain
37 °F
Feels Like 31 °F
N
9
Wind Variable Wind from WNW
Sunrise 6:00 AM
Sunset 7:45 PM
Moon Waning Gibbous

Today is forecast to be Much Cooler than yesterday. Light rain developing in the afternoon.

Pressure 30.04 in
Visibility 6.2 miles
Clouds Mostly Cloudy 3000 ft
Windchill 31 °F
Dew Point 27 °F
Humidity 65%
Rainfall 0.06 in
Snow Depth Not available.
UV 2 out of 16
Pollen Not available.
Air Quality Not available.
Flu Activity Not available.
METAR ZMUB 170730Z 29004MPS 210V340 9999 -SNRA BKN030 03/M03 Q1017 NOSIG RMK QFE655.3 64 MOP

More Conditions Fewer Conditions

Pressure 30.04 in
Visibility 6.2 miles
Clouds Mostly Cloudy 3000 ft
Windchill 31 °F
Dew Point 27 °F
Humidity 65%
Rainfall 0.06 in
Snow Depth Not available.
UV 2 out of 16
Pollen Not available.
Air Quality Not available.
Flu Activity Not available.
METAR ZMUB 170730Z 29004MPS 210V340 9999 -SNRA BKN030 03/M03 Q1017 NOSIG RMK QFE655.3 64 MOP

More Conditions Fewer Conditions

10-Day Forecast

Almanac

Astronomy

Apr. 17, 2014 Rise Set
Actual Time 6:00 AM ULAT 7:45 PM ULAT
Civil Twilight 5:28 AM ULAT 8:17 PM ULAT
Nautical Twilight 4:48 AM ULAT 8:58 PM ULAT
Astronomical Twilight 4:04 AM ULAT 9:42 PM ULAT
Moon 10:05 PM ULAT 7:01 AM ULAT
Length of Visible Light 14h 49m
Length of Day
13h 44m
Tomorrow will be 3m 18s longer.
Waning Gibbous, 95% of the Moon is Illuminated
Today
Waning Gibbous
Apr 22
Last Quarter
Apr 29
New
May 6
First Quarter
May 14
Full

Yesterday's Extremes

Country Highs Country Lows

Community

  • Sunset over the Bay
    Sunset over the Bay
  • symphony in blue....
    symphony in blue....
  • Dawn Surprise
    Dawn Surprise
  • Yucca delight
    Yucca delight
  • Sunset inside of the Ocean
    Sunset inside of the Ocean

WunderPhotos

Upload Photos

1,701,875 photos uploaded!

WunderBlogs® & News

Nearby

Snow Depth

Not available.

Coastal Water Temperatures

Place Temperature
No Stations Reporting

Earthquake Activity

City Distance Mag. Time & Date
No recent earthquake activity has been reported nearby.
Minimum magnitude displayed is 2.5.

Nearby Weather Stations

There are no personal weather stations in this area.

What do you think?

We're not finished. Please let us know what you like, what you don't like, and what you are still missing.